sensor_id;sensor_type;location;lat;lon;timestamp;P1;durP1;ratioP1;P2;durP2;ratioP2
10967;SDS011;5536;49.602;10.980;2023-12-14T00:01:13;1.53;;;1.53;;
10967;SDS011;5536;49.602;10.980;2023-12-14T00:03:40;1.90;;;1.80;;
10967;SDS011;5536;49.602;10.980;2023-12-14T00:06:10;2.40;;;2.10;;
10967;SDS011;5536;49.602;10.980;2023-12-14T00:08:37;1.77;;;1.67;;
10967;SDS011;5536;49.602;10.980;2023-12-14T00:11:05;6.57;;;2.07;;
10967;SDS011;5536;49.602;10.980;2023-12-14T00:13:33;2.60;;;2.03;;
10967;SDS011;5536;49.602;10.980;2023-12-14T00:16:00;3.07;;;2.03;;
10967;SDS011;5536;49.602;10.980;2023-12-14T00:18:27;1.80;;;1.70;;
10967;SDS011;5536;49.602;10.980;2023-12-14T00:20:54;2.20;;;2.10;;
10967;SDS011;5536;49.602;10.980;2023-12-14T00:23:23;2.30;;;2.10;;
10967;SDS011;5536;49.602;10.980;2023-12-14T00:25:50;2.50;;;2.30;;
10967;SDS011;5536;49.602;10.980;2023-12-14T00:28:17;5.60;;;2.20;;
10967;SDS011;5536;49.602;10.980;2023-12-14T00:30:44;2.37;;;2.17;;
10967;SDS011;5536;49.602;10.980;2023-12-14T00:33:11;1.93;;;1.83;;
10967;SDS011;5536;49.602;10.980;2023-12-14T00:35:38;2.00;;;1.90;;
10967;SDS011;5536;49.602;10.980;2023-12-14T00:38:05;6.57;;;1.73;;
10967;SDS011;5536;49.602;10.980;2023-12-14T00:40:34;2.03;;;1.93;;
10967;SDS011;5536;49.602;10.980;2023-12-14T00:43:01;4.03;;;2.40;;
10967;SDS011;5536;49.602;10.980;2023-12-14T00:45:28;2.43;;;2.20;;
10967;SDS011;5536;49.602;10.980;2023-12-14T00:47:55;2.13;;;1.97;;
10967;SDS011;5536;49.602;10.980;2023-12-14T00:50:22;2.23;;;2.13;;
10967;SDS011;5536;49.602;10.980;2023-12-14T00:52:49;2.10;;;1.90;;
10967;SDS011;5536;49.602;10.980;2023-12-14T00:55:16;1.93;;;1.83;;
10967;SDS011;5536;49.602;10.980;2023-12-14T00:57:45;2.30;;;2.20;;
10967;SDS011;5536;49.602;10.980;2023-12-14T01:00:12;2.20;;;2.10;;
10967;SDS011;5536;49.602;10.980;2023-12-14T01:02:40;3.50;;;1.80;;
10967;SDS011;5536;49.602;10.980;2023-12-14T01:05:07;2.00;;;1.90;;
10967;SDS011;5536;49.602;10.980;2023-12-14T01:07:34;1.87;;;1.70;;
10967;SDS011;5536;49.602;10.980;2023-12-14T01:10:01;3.27;;;2.60;;
10967;SDS011;5536;49.602;10.980;2023-12-14T01:12:28;2.90;;;2.43;;
10967;SDS011;5536;49.602;10.980;2023-12-14T01:14:57;3.47;;;2.23;;
10967;SDS011;5536;49.602;10.980;2023-12-14T01:17:24;1.83;;;1.73;;
10967;SDS011;5536;49.602;10.980;2023-12-14T01:19:52;10.17;;;2.20;;
10967;SDS011;5536;49.602;10.980;2023-12-14T01:22:19;2.43;;;2.10;;
10967;SDS011;5536;49.602;10.980;2023-12-14T01:24:46;2.30;;;2.10;;
10967;SDS011;5536;49.602;10.980;2023-12-14T01:27:15;2.87;;;2.57;;
10967;SDS011;5536;49.602;10.980;2023-12-14T01:29:42;2.57;;;2.33;;
10967;SDS011;5536;49.602;10.980;2023-12-14T01:32:10;5.03;;;2.93;;
10967;SDS011;5536;49.602;10.980;2023-12-14T01:34:37;2.23;;;2.10;;
10967;SDS011;5536;49.602;10.980;2023-12-14T01:37:05;1.90;;;1.80;;
10967;SDS011;5536;49.602;10.980;2023-12-14T01:39:32;8.73;;;2.40;;
10967;SDS011;5536;49.602;10.980;2023-12-14T01:41:59;2.77;;;2.20;;
10967;SDS011;5536;49.602;10.980;2023-12-14T01:44:26;2.43;;;2.23;;
10967;SDS011;5536;49.602;10.980;2023-12-14T01:46:53;2.10;;;2.00;;
10967;SDS011;5536;49.602;10.980;2023-12-14T01:49:21;2.77;;;2.43;;
10967;SDS011;5536;49.602;10.980;2023-12-14T01:51:48;2.60;;;2.40;;
10967;SDS011;5536;49.602;10.980;2023-12-14T01:54:15;3.00;;;2.53;;
10967;SDS011;5536;49.602;10.980;2023-12-14T01:56:42;1.90;;;1.80;;
10967;SDS011;5536;49.602;10.980;2023-12-14T01:59:11;2.80;;;2.60;;
10967;SDS011;5536;49.602;10.980;2023-12-14T02:01:44;2.20;;;2.10;;
10967;SDS011;5536;49.602;10.980;2023-12-14T02:04:12;3.43;;;2.20;;
10967;SDS011;5536;49.602;10.980;2023-12-14T02:06:41;2.73;;;2.50;;
10967;SDS011;5536;49.602;10.980;2023-12-14T02:09:08;3.50;;;2.00;;
10967;SDS011;5536;49.602;10.980;2023-12-14T02:11:35;1.80;;;1.70;;
10967;SDS011;5536;49.602;10.980;2023-12-14T02:14:03;2.60;;;2.40;;
10967;SDS011;5536;49.602;10.980;2023-12-14T02:16:31;2.67;;;2.33;;
10967;SDS011;5536;49.602;10.980;2023-12-14T02:18:58;2.90;;;2.30;;
10967;SDS011;5536;49.602;10.980;2023-12-14T02:21:25;2.80;;;2.60;;
10967;SDS011;5536;49.602;10.980;2023-12-14T02:23:54;2.67;;;2.10;;
10967;SDS011;5536;49.602;10.980;2023-12-14T02:26:21;2.33;;;2.23;;
10967;SDS011;5536;49.602;10.980;2023-12-14T02:28:48;2.80;;;2.27;;
10967;SDS011;5536;49.602;10.980;2023-12-14T02:31:15;2.20;;;2.10;;
10967;SDS011;5536;49.602;10.980;2023-12-14T02:33:43;2.37;;;2.17;;
10967;SDS011;5536;49.602;10.980;2023-12-14T02:36:10;2.27;;;2.07;;
10967;SDS011;5536;49.602;10.980;2023-12-14T02:38:37;2.67;;;2.47;;
10967;SDS011;5536;49.602;10.980;2023-12-14T02:41:06;2.13;;;2.03;;
10967;SDS011;5536;49.602;10.980;2023-12-14T02:43:33;3.07;;;2.60;;
10967;SDS011;5536;49.602;10.980;2023-12-14T02:46:00;3.57;;;2.80;;
10967;SDS011;5536;49.602;10.980;2023-12-14T02:48:28;3.67;;;2.70;;
10967;SDS011;5536;49.602;10.980;2023-12-14T02:50:55;2.83;;;2.63;;
10967;SDS011;5536;49.602;10.980;2023-12-14T02:53:24;3.40;;;3.10;;
10967;SDS011;5536;49.602;10.980;2023-12-14T02:55:52;3.87;;;3.23;;
10967;SDS011;5536;49.602;10.980;2023-12-14T02:58:20;3.30;;;3.00;;
10967;SDS011;5536;49.602;10.980;2023-12-14T03:00:47;8.53;;;2.90;;
10967;SDS011;5536;49.602;10.980;2023-12-14T03:03:14;2.67;;;2.47;;
10967;SDS011;5536;49.602;10.980;2023-12-14T03:05:41;2.80;;;2.60;;
10967;SDS011;5536;49.602;10.980;2023-12-14T03:08:08;6.93;;;2.93;;
10967;SDS011;5536;49.602;10.980;2023-12-14T03:10:35;3.70;;;2.97;;
10967;SDS011;5536;49.602;10.980;2023-12-14T03:13:02;4.03;;;3.63;;
10967;SDS011;5536;49.602;10.980;2023-12-14T03:15:31;3.70;;;3.33;;
10967;SDS011;5536;49.602;10.980;2023-12-14T03:17:58;3.27;;;2.97;;
10967;SDS011;5536;49.602;10.980;2023-12-14T03:20:25;3.83;;;3.13;;
10967;SDS011;5536;49.602;10.980;2023-12-14T03:22:52;5.97;;;2.90;;
10967;SDS011;5536;49.602;10.980;2023-12-14T03:25:19;7.67;;;3.60;;
10967;SDS011;5536;49.602;10.980;2023-12-14T03:27:46;3.37;;;3.10;;
10967;SDS011;5536;49.602;10.980;2023-12-14T03:30:13;10.53;;;3.80;;
10967;SDS011;5536;49.602;10.980;2023-12-14T03:32:41;6.07;;;3.40;;
10967;SDS011;5536;49.602;10.980;2023-12-14T03:35:08;3.63;;;3.33;;
10967;SDS011;5536;49.602;10.980;2023-12-14T03:37:35;3.97;;;3.57;;
10967;SDS011;5536;49.602;10.980;2023-12-14T03:40:03;4.30;;;3.00;;
10967;SDS011;5536;49.602;10.980;2023-12-14T03:42:30;4.73;;;3.50;;
10967;SDS011;5536;49.602;10.980;2023-12-14T03:44:57;3.87;;;3.57;;
10967;SDS011;5536;49.602;10.980;2023-12-14T03:47:24;4.20;;;3.80;;
10967;SDS011;5536;49.602;10.980;2023-12-14T03:49:53;4.90;;;4.20;;
10967;SDS011;5536;49.602;10.980;2023-12-14T03:52:20;6.83;;;4.17;;
10967;SDS011;5536;49.602;10.980;2023-12-14T03:54:47;3.90;;;3.50;;
10967;SDS011;5536;49.602;10.980;2023-12-14T03:57:14;4.53;;;3.90;;
10967;SDS011;5536;49.602;10.980;2023-12-14T03:59:41;5.77;;;4.03;;
10967;SDS011;5536;49.602;10.980;2023-12-14T04:02:08;13.10;;;3.73;;
10967;SDS011;5536;49.602;10.980;2023-12-14T04:04:35;11.20;;;4.10;;
10967;SDS011;5536;49.602;10.980;2023-12-14T04:07:04;7.17;;;4.07;;
10967;SDS011;5536;49.602;10.980;2023-12-14T04:09:31;13.70;;;4.40;;
10967;SDS011;5536;49.602;10.980;2023-12-14T04:11:58;3.93;;;3.53;;
10967;SDS011;5536;49.602;10.980;2023-12-14T04:14:25;15.57;;;3.77;;
10967;SDS011;5536;49.602;10.980;2023-12-14T04:16:52;6.23;;;4.47;;
10967;SDS011;5536;49.602;10.980;2023-12-14T04:19:20;7.23;;;4.53;;
10967;SDS011;5536;49.602;10.980;2023-12-14T04:21:47;4.70;;;4.07;;
10967;SDS011;5536;49.602;10.980;2023-12-14T04:24:16;5.20;;;3.97;;
10967;SDS011;5536;49.602;10.980;2023-12-14T04:26:43;6.67;;;4.27;;
10967;SDS011;5536;49.602;10.980;2023-12-14T04:29:10;5.87;;;3.87;;
10967;SDS011;5536;49.602;10.980;2023-12-14T04:31:37;4.37;;;3.97;;
10967;SDS011;5536;49.602;10.980;2023-12-14T04:34:04;10.20;;;4.17;;
10967;SDS011;5536;49.602;10.980;2023-12-14T04:36:37;9.23;;;6.63;;
10967;SDS011;5536;49.602;10.980;2023-12-14T04:39:04;6.37;;;5.20;;
10967;SDS011;5536;49.602;10.980;2023-12-14T04:41:32;10.97;;;5.23;;
10967;SDS011;5536;49.602;10.980;2023-12-14T04:43:59;6.50;;;5.77;;
10967;SDS011;5536;49.602;10.980;2023-12-14T04:46:26;6.30;;;4.97;;
10967;SDS011;5536;49.602;10.980;2023-12-14T04:48:53;6.53;;;5.63;;
10967;SDS011;5536;49.602;10.980;2023-12-14T04:51:20;6.57;;;4.97;;
10967;SDS011;5536;49.602;10.980;2023-12-14T04:53:48;5.37;;;4.60;;
10967;SDS011;5536;49.602;10.980;2023-12-14T04:56:15;4.30;;;3.90;;
10967;SDS011;5536;49.602;10.980;2023-12-14T04:58:47;5.47;;;3.83;;
10967;SDS011;5536;49.602;10.980;2023-12-14T05:01:14;3.90;;;3.53;;
10967;SDS011;5536;49.602;10.980;2023-12-14T05:03:41;11.77;;;4.50;;
10967;SDS011;5536;49.602;10.980;2023-12-14T05:06:08;4.67;;;4.17;;
10967;SDS011;5536;49.602;10.980;2023-12-14T05:08:35;4.93;;;3.27;;
10967;SDS011;5536;49.602;10.980;2023-12-14T05:11:02;3.53;;;3.23;;
10967;SDS011;5536;49.602;10.980;2023-12-14T05:13:30;3.47;;;3.17;;
10967;SDS011;5536;49.602;10.980;2023-12-14T05:15:58;10.37;;;4.30;;
10967;SDS011;5536;49.602;10.980;2023-12-14T05:18:26;7.07;;;4.63;;
10967;SDS011;5536;49.602;10.980;2023-12-14T05:20:53;4.87;;;3.63;;
10967;SDS011;5536;49.602;10.980;2023-12-14T05:23:20;8.80;;;4.13;;
10967;SDS011;5536;49.602;10.980;2023-12-14T05:25:52;4.63;;;4.23;;
10967;SDS011;5536;49.602;10.980;2023-12-14T05:28:19;4.83;;;4.03;;
10967;SDS011;5536;49.602;10.980;2023-12-14T05:30:46;5.77;;;4.43;;
10967;SDS011;5536;49.602;10.980;2023-12-14T05:33:14;5.03;;;4.00;;
10967;SDS011;5536;49.602;10.980;2023-12-14T05:35:41;7.10;;;4.10;;
10967;SDS011;5536;49.602;10.980;2023-12-14T05:38:08;6.63;;;4.30;;
10967;SDS011;5536;49.602;10.980;2023-12-14T05:40:35;5.20;;;4.70;;
10967;SDS011;5536;49.602;10.980;2023-12-14T05:43:02;6.47;;;4.97;;
10967;SDS011;5536;49.602;10.980;2023-12-14T05:45:30;5.77;;;4.93;;
10967;SDS011;5536;49.602;10.980;2023-12-14T05:47:57;5.17;;;4.43;;
10967;SDS011;5536;49.602;10.980;2023-12-14T05:50:25;4.23;;;3.83;;
10967;SDS011;5536;49.602;10.980;2023-12-14T05:52:52;4.57;;;3.80;;
10967;SDS011;5536;49.602;10.980;2023-12-14T05:55:20;6.23;;;4.90;;
10967;SDS011;5536;49.602;10.980;2023-12-14T05:57:47;5.77;;;4.27;;
10967;SDS011;5536;49.602;10.980;2023-12-14T06:00:14;5.67;;;4.70;;
10967;SDS011;5536;49.602;10.980;2023-12-14T06:02:42;5.57;;;4.30;;
10967;SDS011;5536;49.602;10.980;2023-12-14T06:05:09;6.47;;;4.57;;
10967;SDS011;5536;49.602;10.980;2023-12-14T06:07:38;4.97;;;4.47;;
10967;SDS011;5536;49.602;10.980;2023-12-14T06:10:06;7.00;;;4.77;;
10967;SDS011;5536;49.602;10.980;2023-12-14T06:12:33;6.43;;;4.93;;
10967;SDS011;5536;49.602;10.980;2023-12-14T06:15:02;10.47;;;5.20;;
10967;SDS011;5536;49.602;10.980;2023-12-14T06:17:29;10.90;;;6.23;;
10967;SDS011;5536;49.602;10.980;2023-12-14T06:19:57;8.23;;;5.67;;
10967;SDS011;5536;49.602;10.980;2023-12-14T06:22:24;7.73;;;6.20;;
10967;SDS011;5536;49.602;10.980;2023-12-14T06:24:53;5.90;;;5.23;;
10967;SDS011;5536;49.602;10.980;2023-12-14T06:27:20;6.47;;;5.03;;
10967;SDS011;5536;49.602;10.980;2023-12-14T06:29:51;7.37;;;5.70;;
10967;SDS011;5536;49.602;10.980;2023-12-14T06:32:18;5.87;;;5.00;;
10967;SDS011;5536;49.602;10.980;2023-12-14T06:34:45;6.23;;;5.10;;
10967;SDS011;5536;49.602;10.980;2023-12-14T06:37:12;6.83;;;5.47;;
10967;SDS011;5536;49.602;10.980;2023-12-14T06:39:40;5.00;;;4.50;;
10967;SDS011;5536;49.602;10.980;2023-12-14T06:42:09;5.80;;;5.20;;
10967;SDS011;5536;49.602;10.980;2023-12-14T06:44:37;9.90;;;5.50;;
10967;SDS011;5536;49.602;10.980;2023-12-14T06:47:04;6.17;;;4.53;;
10967;SDS011;5536;49.602;10.980;2023-12-14T06:49:31;7.30;;;6.17;;
10967;SDS011;5536;49.602;10.980;2023-12-14T06:51:58;7.00;;;5.33;;
10967;SDS011;5536;49.602;10.980;2023-12-14T06:54:28;8.53;;;5.83;;
10967;SDS011;5536;49.602;10.980;2023-12-14T06:56:55;6.63;;;5.37;;
10967;SDS011;5536;49.602;10.980;2023-12-14T06:59:23;8.00;;;5.80;;
10967;SDS011;5536;49.602;10.980;2023-12-14T07:01:50;6.33;;;5.53;;
10967;SDS011;5536;49.602;10.980;2023-12-14T07:04:17;9.20;;;5.77;;
10967;SDS011;5536;49.602;10.980;2023-12-14T07:06:49;6.20;;;5.07;;
10967;SDS011;5536;49.602;10.980;2023-12-14T07:09:17;7.27;;;5.33;;
10967;SDS011;5536;49.602;10.980;2023-12-14T07:11:44;8.43;;;5.63;;
10967;SDS011;5536;49.602;10.980;2023-12-14T07:14:11;6.63;;;5.13;;
10967;SDS011;5536;49.602;10.980;2023-12-14T07:16:41;6.53;;;5.53;;
10967;SDS011;5536;49.602;10.980;2023-12-14T07:19:08;6.47;;;5.50;;
10967;SDS011;5536;49.602;10.980;2023-12-14T07:21:36;14.50;;;6.07;;
10967;SDS011;5536;49.602;10.980;2023-12-14T07:24:03;7.87;;;5.63;;
10967;SDS011;5536;49.602;10.980;2023-12-14T07:26:31;8.53;;;6.37;;
10967;SDS011;5536;49.602;10.980;2023-12-14T07:28:58;7.33;;;5.77;;
10967;SDS011;5536;49.602;10.980;2023-12-14T07:31:25;7.43;;;6.10;;
10967;SDS011;5536;49.602;10.980;2023-12-14T07:33:55;11.23;;;5.93;;
10967;SDS011;5536;49.602;10.980;2023-12-14T07:36:23;8.23;;;6.20;;
10967;SDS011;5536;49.602;10.980;2023-12-14T07:38:50;7.37;;;5.60;;
10967;SDS011;5536;49.602;10.980;2023-12-14T07:41:17;7.40;;;6.07;;
10967;SDS011;5536;49.602;10.980;2023-12-14T07:43:44;7.83;;;5.33;;
10967;SDS011;5536;49.602;10.980;2023-12-14T07:46:11;15.83;;;6.00;;
10967;SDS011;5536;49.602;10.980;2023-12-14T07:48:39;20.27;;;6.30;;
10967;SDS011;5536;49.602;10.980;2023-12-14T07:51:08;9.13;;;5.97;;
10967;SDS011;5536;49.602;10.980;2023-12-14T07:53:35;6.60;;;5.57;;
10967;SDS011;5536;49.602;10.980;2023-12-14T07:56:02;11.47;;;5.77;;
10967;SDS011;5536;49.602;10.980;2023-12-14T07:58:29;8.10;;;5.77;;
10967;SDS011;5536;49.602;10.980;2023-12-14T08:00:56;15.67;;;6.43;;
10967;SDS011;5536;49.602;10.980;2023-12-14T08:03:23;10.23;;;6.20;;
10967;SDS011;5536;49.602;10.980;2023-12-14T08:05:50;8.47;;;6.10;;
10967;SDS011;5536;49.602;10.980;2023-12-14T08:08:18;8.97;;;7.20;;
10967;SDS011;5536;49.602;10.980;2023-12-14T08:10:46;12.37;;;6.23;;
10967;SDS011;5536;49.602;10.980;2023-12-14T08:13:13;8.57;;;6.27;;
10967;SDS011;5536;49.602;10.980;2023-12-14T08:15:40;8.07;;;6.33;;
10967;SDS011;5536;49.602;10.980;2023-12-14T08:18:07;8.07;;;6.17;;
10967;SDS011;5536;49.602;10.980;2023-12-14T08:20:34;7.30;;;5.60;;
10967;SDS011;5536;49.602;10.980;2023-12-14T08:23:01;9.23;;;6.30;;
10967;SDS011;5536;49.602;10.980;2023-12-14T08:25:30;8.00;;;5.90;;
10967;SDS011;5536;49.602;10.980;2023-12-14T08:27:57;10.17;;;5.83;;
10967;SDS011;5536;49.602;10.980;2023-12-14T08:30:24;7.50;;;5.97;;
10967;SDS011;5536;49.602;10.980;2023-12-14T08:32:51;12.77;;;6.60;;
10967;SDS011;5536;49.602;10.980;2023-12-14T08:35:18;7.40;;;5.70;;
10967;SDS011;5536;49.602;10.980;2023-12-14T08:37:46;13.73;;;7.17;;
10967;SDS011;5536;49.602;10.980;2023-12-14T08:40:13;9.17;;;6.50;;
10967;SDS011;5536;49.602;10.980;2023-12-14T08:42:42;8.07;;;6.10;;
10967;SDS011;5536;49.602;10.980;2023-12-14T08:45:09;8.67;;;6.73;;
10967;SDS011;5536;49.602;10.980;2023-12-14T08:47:37;7.07;;;5.60;;
10967;SDS011;5536;49.602;10.980;2023-12-14T08:50:05;7.30;;;6.50;;
10967;SDS011;5536;49.602;10.980;2023-12-14T08:52:33;10.40;;;6.40;;
10967;SDS011;5536;49.602;10.980;2023-12-14T08:55:00;10.63;;;6.30;;
10967;SDS011;5536;49.602;10.980;2023-12-14T08:57:28;10.33;;;6.30;;
10967;SDS011;5536;49.602;10.980;2023-12-14T08:59:57;9.47;;;6.10;;
10967;SDS011;5536;49.602;10.980;2023-12-14T09:02:24;6.50;;;5.83;;
10967;SDS011;5536;49.602;10.980;2023-12-14T09:04:52;6.90;;;5.73;;
10967;SDS011;5536;49.602;10.980;2023-12-14T09:07:19;10.60;;;6.63;;
10967;SDS011;5536;49.602;10.980;2023-12-14T09:09:46;7.10;;;6.30;;
10967;SDS011;5536;49.602;10.980;2023-12-14T09:12:13;11.30;;;6.10;;
10967;SDS011;5536;49.602;10.980;2023-12-14T09:14:40;7.17;;;5.63;;
10967;SDS011;5536;49.602;10.980;2023-12-14T09:17:08;9.77;;;5.53;;
10967;SDS011;5536;49.602;10.980;2023-12-14T09:19:35;6.50;;;4.70;;
10967;SDS011;5536;49.602;10.980;2023-12-14T09:22:03;6.50;;;5.50;;
10967;SDS011;5536;49.602;10.980;2023-12-14T09:24:30;7.47;;;5.50;;
10967;SDS011;5536;49.602;10.980;2023-12-14T09:26:57;8.43;;;5.73;;
10967;SDS011;5536;49.602;10.980;2023-12-14T09:29:24;8.00;;;4.63;;
10967;SDS011;5536;49.602;10.980;2023-12-14T09:31:51;5.27;;;4.60;;
10967;SDS011;5536;49.602;10.980;2023-12-14T09:34:19;8.40;;;5.10;;
10967;SDS011;5536;49.602;10.980;2023-12-14T09:36:46;9.03;;;5.10;;
10967;SDS011;5536;49.602;10.980;2023-12-14T09:39:13;6.43;;;5.20;;
10967;SDS011;5536;49.602;10.980;2023-12-14T09:41:40;5.07;;;4.53;;
10967;SDS011;5536;49.602;10.980;2023-12-14T09:44:07;8.20;;;5.73;;
10967;SDS011;5536;49.602;10.980;2023-12-14T09:46:37;6.60;;;4.83;;
10967;SDS011;5536;49.602;10.980;2023-12-14T09:49:06;11.53;;;5.67;;
10967;SDS011;5536;49.602;10.980;2023-12-14T09:51:36;9.53;;;5.40;;
10967;SDS011;5536;49.602;10.980;2023-12-14T09:54:06;6.53;;;5.10;;
10967;SDS011;5536;49.602;10.980;2023-12-14T09:56:33;6.37;;;5.50;;
10967;SDS011;5536;49.602;10.980;2023-12-14T09:59:00;7.20;;;5.53;;
10967;SDS011;5536;49.602;10.980;2023-12-14T10:01:29;5.87;;;5.23;;
10967;SDS011;5536;49.602;10.980;2023-12-14T10:04:07;5.97;;;5.10;;
10967;SDS011;5536;49.602;10.980;2023-12-14T10:06:34;5.77;;;5.13;;
10967;SDS011;5536;49.602;10.980;2023-12-14T10:09:03;8.00;;;6.00;;
10967;SDS011;5536;49.602;10.980;2023-12-14T10:11:34;7.93;;;6.27;;
10967;SDS011;5536;49.602;10.980;2023-12-14T10:14:01;5.50;;;5.03;;
10967;SDS011;5536;49.602;10.980;2023-12-14T10:16:29;7.47;;;5.27;;
10967;SDS011;5536;49.602;10.980;2023-12-14T10:18:58;13.00;;;6.53;;
10967;SDS011;5536;49.602;10.980;2023-12-14T10:21:26;9.83;;;5.87;;
10967;SDS011;5536;49.602;10.980;2023-12-14T10:23:56;8.37;;;6.00;;
10967;SDS011;5536;49.602;10.980;2023-12-14T10:26:23;6.97;;;5.87;;
10967;SDS011;5536;49.602;10.980;2023-12-14T10:28:51;9.50;;;5.80;;
10967;SDS011;5536;49.602;10.980;2023-12-14T10:31:18;10.33;;;6.00;;
10967;SDS011;5536;49.602;10.980;2023-12-14T10:33:46;5.97;;;5.27;;
10967;SDS011;5536;49.602;10.980;2023-12-14T10:36:14;9.43;;;5.63;;
10967;SDS011;5536;49.602;10.980;2023-12-14T10:38:44;8.93;;;5.80;;
10967;SDS011;5536;49.602;10.980;2023-12-14T10:41:15;7.93;;;5.40;;
10967;SDS011;5536;49.602;10.980;2023-12-14T10:43:44;5.80;;;5.20;;
10967;SDS011;5536;49.602;10.980;2023-12-14T10:46:13;5.97;;;5.37;;
10967;SDS011;5536;49.602;10.980;2023-12-14T10:48:40;9.67;;;6.30;;
10967;SDS011;5536;49.602;10.980;2023-12-14T10:51:10;15.77;;;6.07;;
10967;SDS011;5536;49.602;10.980;2023-12-14T10:53:38;6.43;;;5.83;;
10967;SDS011;5536;49.602;10.980;2023-12-14T10:56:08;8.93;;;6.03;;
10967;SDS011;5536;49.602;10.980;2023-12-14T10:58:48;10.53;;;6.27;;
10967;SDS011;5536;49.602;10.980;2023-12-14T11:01:19;11.97;;;5.90;;
10967;SDS011;5536;49.602;10.980;2023-12-14T11:03:47;6.20;;;5.43;;
10967;SDS011;5536;49.602;10.980;2023-12-14T11:06:21;6.67;;;4.97;;
10967;SDS011;5536;49.602;10.980;2023-12-14T11:08:56;7.37;;;5.10;;
10967;SDS011;5536;49.602;10.980;2023-12-14T11:11:29;17.83;;;6.67;;
10967;SDS011;5536;49.602;10.980;2023-12-14T11:13:57;8.77;;;5.77;;
10967;SDS011;5536;49.602;10.980;2023-12-14T11:16:26;8.17;;;5.63;;
10967;SDS011;5536;49.602;10.980;2023-12-14T11:21:56;11.53;;;5.67;;
10967;SDS011;5536;49.602;10.980;2023-12-14T11:24:37;8.47;;;6.43;;
10967;SDS011;5536;49.602;10.980;2023-12-14T11:27:11;10.00;;;6.10;;
10967;SDS011;5536;49.602;10.980;2023-12-14T11:29:40;7.47;;;5.83;;
10967;SDS011;5536;49.602;10.980;2023-12-14T11:32:08;9.40;;;5.50;;
10967;SDS011;5536;49.602;10.980;2023-12-14T11:34:35;7.10;;;5.63;;
10967;SDS011;5536;49.602;10.980;2023-12-14T11:37:02;16.03;;;5.43;;
10967;SDS011;5536;49.602;10.980;2023-12-14T11:39:31;8.17;;;6.13;;
10967;SDS011;5536;49.602;10.980;2023-12-14T11:41:58;13.73;;;6.00;;
10967;SDS011;5536;49.602;10.980;2023-12-14T11:44:26;8.50;;;6.20;;
10967;SDS011;5536;49.602;10.980;2023-12-14T11:46:54;6.80;;;4.90;;
10967;SDS011;5536;49.602;10.980;2023-12-14T11:49:23;6.80;;;5.87;;
10967;SDS011;5536;49.602;10.980;2023-12-14T11:51:52;6.63;;;5.20;;
10967;SDS011;5536;49.602;10.980;2023-12-14T11:54:20;8.77;;;5.53;;
10967;SDS011;5536;49.602;10.980;2023-12-14T11:56:48;10.20;;;6.43;;
10967;SDS011;5536;49.602;10.980;2023-12-14T11:59:16;6.07;;;5.13;;
10967;SDS011;5536;49.602;10.980;2023-12-14T12:01:55;4.40;;;4.00;;
10967;SDS011;5536;49.602;10.980;2023-12-14T12:04:22;5.97;;;4.70;;
10967;SDS011;5536;49.602;10.980;2023-12-14T12:06:58;5.37;;;4.77;;
10967;SDS011;5536;49.602;10.980;2023-12-14T12:09:35;4.73;;;4.27;;
10967;SDS011;5536;49.602;10.980;2023-12-14T12:12:05;5.63;;;4.23;;
10967;SDS011;5536;49.602;10.980;2023-12-14T12:14:33;5.13;;;4.43;;
10967;SDS011;5536;49.602;10.980;2023-12-14T12:17:02;4.87;;;4.37;;
10967;SDS011;5536;49.602;10.980;2023-12-14T12:19:31;18.50;;;4.23;;
10967;SDS011;5536;49.602;10.980;2023-12-14T12:21:58;6.07;;;4.27;;
10967;SDS011;5536;49.602;10.980;2023-12-14T12:24:25;5.60;;;4.57;;
10967;SDS011;5536;49.602;10.980;2023-12-14T12:26:52;6.90;;;4.10;;
10967;SDS011;5536;49.602;10.980;2023-12-14T12:29:19;6.90;;;5.23;;
10967;SDS011;5536;49.602;10.980;2023-12-14T12:31:46;6.83;;;4.97;;
10967;SDS011;5536;49.602;10.980;2023-12-14T12:34:15;6.87;;;4.80;;
10967;SDS011;5536;49.602;10.980;2023-12-14T12:36:42;4.67;;;4.13;;
10967;SDS011;5536;49.602;10.980;2023-12-14T12:39:09;9.97;;;4.53;;
10967;SDS011;5536;49.602;10.980;2023-12-14T12:41:36;8.17;;;5.10;;
10967;SDS011;5536;49.602;10.980;2023-12-14T12:44:03;4.20;;;3.80;;
10967;SDS011;5536;49.602;10.980;2023-12-14T12:46:33;4.40;;;4.00;;
10967;SDS011;5536;49.602;10.980;2023-12-14T12:49:00;5.03;;;4.47;;
10967;SDS011;5536;49.602;10.980;2023-12-14T12:51:31;3.73;;;3.43;;
10967;SDS011;5536;49.602;10.980;2023-12-14T12:53:59;7.77;;;4.43;;
10967;SDS011;5536;49.602;10.980;2023-12-14T12:56:26;6.90;;;3.70;;
10967;SDS011;5536;49.602;10.980;2023-12-14T12:58:54;3.93;;;3.40;;
10967;SDS011;5536;49.602;10.980;2023-12-14T13:01:21;4.90;;;3.87;;
10967;SDS011;5536;49.602;10.980;2023-12-14T13:03:52;4.47;;;3.77;;
10967;SDS011;5536;49.602;10.980;2023-12-14T13:06:20;5.90;;;4.17;;
10967;SDS011;5536;49.602;10.980;2023-12-14T13:08:49;5.80;;;3.53;;
10967;SDS011;5536;49.602;10.980;2023-12-14T13:11:16;4.53;;;4.03;;
10967;SDS011;5536;49.602;10.980;2023-12-14T13:13:43;4.77;;;3.73;;
10967;SDS011;5536;49.602;10.980;2023-12-14T13:16:10;4.00;;;3.63;;
10967;SDS011;5536;49.602;10.980;2023-12-14T13:18:39;4.73;;;4.20;;
10967;SDS011;5536;49.602;10.980;2023-12-14T13:21:06;3.60;;;3.30;;
10967;SDS011;5536;49.602;10.980;2023-12-14T13:23:33;4.37;;;3.77;;
10967;SDS011;5536;49.602;10.980;2023-12-14T13:26:01;6.13;;;4.27;;
10967;SDS011;5536;49.602;10.980;2023-12-14T13:28:28;4.67;;;3.97;;
10967;SDS011;5536;49.602;10.980;2023-12-14T13:30:56;3.83;;;3.10;;
10967;SDS011;5536;49.602;10.980;2023-12-14T13:33:23;3.00;;;2.77;;
10967;SDS011;5536;49.602;10.980;2023-12-14T13:35:50;3.03;;;2.60;;
10967;SDS011;5536;49.602;10.980;2023-12-14T13:38:18;3.53;;;2.93;;
10967;SDS011;5536;49.602;10.980;2023-12-14T13:40:45;4.17;;;2.47;;
10967;SDS011;5536;49.602;10.980;2023-12-14T13:43:13;4.00;;;3.07;;
10967;SDS011;5536;49.602;10.980;2023-12-14T13:45:40;4.43;;;2.73;;
10967;SDS011;5536;49.602;10.980;2023-12-14T13:48:08;3.47;;;2.70;;
10967;SDS011;5536;49.602;10.980;2023-12-14T13:50:35;3.27;;;2.63;;
10967;SDS011;5536;49.602;10.980;2023-12-14T13:53:02;8.03;;;3.20;;
10967;SDS011;5536;49.602;10.980;2023-12-14T13:55:30;4.07;;;2.47;;
10967;SDS011;5536;49.602;10.980;2023-12-14T13:57:57;7.43;;;2.20;;
10967;SDS011;5536;49.602;10.980;2023-12-14T14:00:27;2.57;;;2.37;;
10967;SDS011;5536;49.602;10.980;2023-12-14T14:02:54;2.03;;;1.90;;
10967;SDS011;5536;49.602;10.980;2023-12-14T14:05:21;2.57;;;2.37;;
10967;SDS011;5536;49.602;10.980;2023-12-14T14:07:48;4.60;;;2.90;;
10967;SDS011;5536;49.602;10.980;2023-12-14T14:10:16;3.60;;;2.37;;
10967;SDS011;5536;49.602;10.980;2023-12-14T14:12:44;4.70;;;2.70;;
10967;SDS011;5536;49.602;10.980;2023-12-14T14:15:11;4.80;;;2.63;;
10967;SDS011;5536;49.602;10.980;2023-12-14T14:17:40;3.23;;;2.30;;
10967;SDS011;5536;49.602;10.980;2023-12-14T14:20:07;2.97;;;2.50;;
10967;SDS011;5536;49.602;10.980;2023-12-14T14:22:35;3.10;;;2.57;;
10967;SDS011;5536;49.602;10.980;2023-12-14T14:25:02;3.00;;;2.70;;
10967;SDS011;5536;49.602;10.980;2023-12-14T14:27:31;2.93;;;2.70;;
10967;SDS011;5536;49.602;10.980;2023-12-14T14:30:02;2.93;;;2.73;;
10967;SDS011;5536;49.602;10.980;2023-12-14T14:32:29;6.10;;;2.73;;
10967;SDS011;5536;49.602;10.980;2023-12-14T14:34:59;3.27;;;2.97;;
10967;SDS011;5536;49.602;10.980;2023-12-14T14:37:26;3.23;;;2.63;;
10967;SDS011;5536;49.602;10.980;2023-12-14T14:39:53;5.23;;;2.87;;
10967;SDS011;5536;49.602;10.980;2023-12-14T14:42:20;3.13;;;2.93;;
10967;SDS011;5536;49.602;10.980;2023-12-14T14:44:47;2.07;;;1.97;;
10967;SDS011;5536;49.602;10.980;2023-12-14T14:47:14;6.17;;;2.93;;
10967;SDS011;5536;49.602;10.980;2023-12-14T14:49:42;4.77;;;2.90;;
10967;SDS011;5536;49.602;10.980;2023-12-14T14:52:11;2.80;;;2.57;;